PWSweather.com
Personal Weather Stations
Station Observations
WODONGA
Wodonga, WodongaAU 3690

WodongaWodongaAU 3690

Lat: -36.121, Lon: 146.87

Elevation: 541

Station Type: Weather Station

http://www.wodongaweather.net

High Low Average
Temperature 76.1°F24.5°F 43.3°F6.3°F 59.2°F15.1°F
Dew Point 48.0°F8.9°F 37.9°F3.3°F 42.4°F5.8°F
Winds 9.0 mph ENE14.5 mph ENE Calm Calm 2.7 mph 4.3 mph
Wind Gusts 12.1 mph19.5 mph -- 4.2 mph6.8 mph
Humidity 82% 34% 57%
Pressure 30.28 in1025.40 in 30.13 in1020.30 in -
Precipitation 0.00 in0.00 in - -
Hour Temp Dew Point Humidity Winds Wind Gusts Pressure Precip Precip Rate Daily Precip Total
12:00 AM 54.0°F12.2°C 43.3°F6.3°C 67% 1.2 mph SW1.9 kmh SW 3.1 mph5.0 kmh 30.22 in1023.4 mb 0.00 in0.0 mm 0.00 in0.0 mm 0.00 in0.0 mm
12:05 AM 53.6°F12.0°C 42.9°F6.1°C 67% 2.1 mph WSW3.4 kmh WSW 3.8 mph6.1 kmh 30.22 in1023.4 mb 0.00 in0.0 mm 0.00 in0.0 mm 0.00 in0.0 mm
12:10 AM 53.4°F11.9°C 42.7°F5.9°C 67% 1.7 mph WSW2.7 kmh WSW 3.8 mph6.1 kmh 30.22 in1023.4 mb 0.00 in0.0 mm 0.00 in0.0 mm 0.00 in0.0 mm
12:15 AM 53.2°F11.8°C 43.0°F6.1°C 68% 1.1 mph SSW1.8 kmh SSW 2.2 mph3.5 kmh 30.22 in1023.4 mb 0.00 in0.0 mm 0.00 in0.0 mm 0.00 in0.0 mm
12:20 AM 53.2°F11.8°C 43.0°F6.1°C 68% 1.8 mph SW2.9 kmh SW 3.1 mph5.0 kmh 30.22 in1023.4 mb 0.00 in0.0 mm 0.00 in0.0 mm 0.00 in0.0 mm
12:25 AM 53.1°F11.7°C 42.8°F6.0°C 68% 1.7 mph SW2.7 kmh SW 3.1 mph5.0 kmh 30.22 in1023.4 mb 0.00 in0.0 mm 0.00 in0.0 mm 0.00 in0.0 mm
12:30 AM 52.9°F11.6°C 42.6°F5.9°C 68% 1.2 mph E1.9 kmh E 2.2 mph3.5 kmh 30.22 in1023.4 mb 0.00 in0.0 mm 0.00 in0.0 mm 0.00 in0.0 mm
12:35 AM 52.7°F11.5°C 42.8°F6.0°C 69% 1.8 mph ENE2.9 kmh ENE 2.2 mph3.5 kmh 30.22 in1023.4 mb 0.00 in0.0 mm 0.00 in0.0 mm 0.00 in0.0 mm
12:40 AM 52.2°F11.2°C 42.3°F5.7°C 69% 1.7 mph NE2.7 kmh NE 2.2 mph3.5 kmh 30.22 in1023.4 mb 0.00 in0.0 mm 0.00 in0.0 mm 0.00 in0.0 mm
12:45 AM 52.2°F11.2°C 42.7°F5.9°C 70% 1.1 mph WNW1.8 kmh WNW 2.2 mph3.5 kmh 30.22 in1023.4 mb 0.00 in0.0 mm 0.00 in0.0 mm 0.00 in0.0 mm
12:50 AM 52.2°F11.2°C 42.7°F5.9°C 70% 0.7 mph W1.1 kmh W 1.6 mph2.6 kmh 30.22 in1023.4 mb 0.00 in0.0 mm 0.00 in0.0 mm 0.00 in0.0 mm
12:55 AM 52.2°F11.2°C 42.7°F5.9°C 70% 0.3 mph WNW0.5 kmh WNW 1.6 mph2.6 kmh 30.22 in1023.4 mb 0.00 in0.0 mm 0.00 in0.0 mm 0.00 in0.0 mm
01:00 AM 52.0°F11.1°C 42.5°F5.8°C 70% 0.2 mph NW0.3 kmh NW 1.6 mph2.6 kmh 30.22 in1023.4 mb 0.00 in0.0 mm 0.00 in0.0 mm 0.00 in0.0 mm
01:05 AM 51.6°F10.9°C 42.2°F5.7°C 70% 0.3 mph NW0.5 kmh NW 1.6 mph2.6 kmh 30.22 in1023.4 mb 0.00 in0.0 mm 0.00 in0.0 mm 0.00 in0.0 mm
01:10 AM 51.3°F10.7°C 42.2°F5.7°C 71% 0.7 mph NW1.1 kmh NW 1.6 mph2.6 kmh 30.22 in1023.4 mb 0.00 in0.0 mm 0.00 in0.0 mm 0.00 in0.0 mm
01:15 AM 51.3°F10.7°C 42.2°F5.7°C 71% 1.2 mph E1.9 kmh E 1.6 mph2.6 kmh 30.22 in1023.4 mb 0.00 in0.0 mm 0.00 in0.0 mm 0.00 in0.0 mm
01:20 AM 51.3°F10.7°C 42.2°F5.7°C 71% 1.7 mph E2.7 kmh E 2.2 mph3.5 kmh 30.22 in1023.4 mb 0.00 in0.0 mm 0.00 in0.0 mm 0.00 in0.0 mm
01:25 AM 51.1°F10.6°C 42.0°F5.6°C 71% 1.4 mph SE2.3 kmh SE 2.2 mph3.5 kmh 30.22 in1023.4 mb 0.00 in0.0 mm 0.00 in0.0 mm 0.00 in0.0 mm
01:30 AM 51.1°F10.6°C 42.4°F5.8°C 72% 0.8 mph S1.3 kmh S 1.6 mph2.6 kmh 30.22 in1023.4 mb 0.00 in0.0 mm 0.00 in0.0 mm 0.00 in0.0 mm
01:35 AM 51.1°F10.6°C 42.4°F5.8°C 72% 1.1 mph SE1.8 kmh SE 1.6 mph2.6 kmh 30.22 in1023.4 mb 0.00 in0.0 mm 0.00 in0.0 mm 0.00 in0.0 mm
01:40 AM 50.7°F10.4°C 42.0°F5.6°C 72% 1.0 mph S1.6 kmh S 2.2 mph3.5 kmh 30.22 in1023.4 mb 0.00 in0.0 mm 0.00 in0.0 mm 0.00 in0.0 mm
01:45 AM 50.5°F10.3°C 41.9°F5.5°C 72% 0.3 mph SW0.5 kmh SW 2.2 mph3.5 kmh 30.22 in1023.4 mb 0.00 in0.0 mm 0.00 in0.0 mm 0.00 in0.0 mm
01:50 AM 50.4°F10.2°C 41.7°F5.4°C 72% 0.4 mph SW0.6 kmh SW 1.6 mph2.6 kmh 30.22 in1023.4 mb 0.00 in0.0 mm 0.00 in0.0 mm 0.00 in0.0 mm
01:55 AM 50.2°F10.1°C 41.9°F5.5°C 73% 0.7 mph SW1.1 kmh SW 1.6 mph2.6 kmh 30.22 in1023.4 mb 0.00 in0.0 mm 0.00 in0.0 mm 0.00 in0.0 mm
02:00 AM 49.8°F9.9°C 41.5°F5.3°C 73% 0.9 mph SW1.4 kmh SW 1.6 mph2.6 kmh 30.21 in1023.0 mb 0.00 in0.0 mm 0.00 in0.0 mm 0.00 in0.0 mm
02:05 AM 49.6°F9.8°C 41.7°F5.4°C 74% 1.3 mph SW2.1 kmh SW 2.2 mph3.5 kmh 30.22 in1023.4 mb 0.00 in0.0 mm 0.00 in0.0 mm 0.00 in0.0 mm
02:10 AM 49.6°F9.8°C 41.7°F5.4°C 74% 1.6 mph SSE2.6 kmh SSE 2.2 mph3.5 kmh 30.21 in1023.0 mb 0.00 in0.0 mm 0.00 in0.0 mm 0.00 in0.0 mm
02:15 AM 49.5°F9.7°C 41.5°F5.3°C 74% 1.8 mph ESE2.9 kmh ESE 2.2 mph3.5 kmh 30.21 in1023.0 mb 0.00 in0.0 mm 0.00 in0.0 mm 0.00 in0.0 mm
02:20 AM 49.3°F9.6°C 41.4°F5.2°C 74% 1.5 mph SE2.4 kmh SE 2.2 mph3.5 kmh 30.22 in1023.4 mb 0.00 in0.0 mm 0.00 in0.0 mm 0.00 in0.0 mm
02:25 AM 49.1°F9.5°C 41.2°F5.1°C 74% 1.1 mph SSE1.8 kmh SSE 1.6 mph2.6 kmh 30.21 in1023.0 mb 0.00 in0.0 mm 0.00 in0.0 mm 0.00 in0.0 mm
02:30 AM 48.9°F9.4°C 41.4°F5.2°C 75% 0.8 mph SE1.3 kmh SE 1.6 mph2.6 kmh 30.21 in1023.0 mb 0.00 in0.0 mm 0.00 in0.0 mm 0.00 in0.0 mm
02:35 AM 48.7°F9.3°C 41.2°F5.1°C 75% 1.3 mph S2.1 kmh S 2.2 mph3.5 kmh 30.21 in1023.0 mb 0.00 in0.0 mm 0.00 in0.0 mm 0.00 in0.0 mm
02:40 AM 48.6°F9.2°C 41.0°F5.0°C 75% 1.6 mph S2.6 kmh S 2.2 mph3.5 kmh 30.21 in1023.0 mb 0.00 in0.0 mm 0.00 in0.0 mm 0.00 in0.0 mm
02:45 AM 48.6°F9.2°C 41.0°F5.0°C 75% 0.8 mph SSW1.3 kmh SSW 1.6 mph2.6 kmh 30.21 in1023.0 mb 0.00 in0.0 mm 0.00 in0.0 mm 0.00 in0.0 mm
02:50 AM 47.8°F8.8°C 40.6°F4.8°C 76% 0.3 mph SW0.5 kmh SW 0.7 mph1.1 kmh 30.20 in1022.7 mb 0.00 in0.0 mm 0.00 in0.0 mm 0.00 in0.0 mm
02:55 AM 47.8°F8.8°C 40.6°F4.8°C 76% 0.1 mph SW0.2 kmh SW 0.7 mph1.1 kmh 30.21 in1023.0 mb 0.00 in0.0 mm 0.00 in0.0 mm 0.00 in0.0 mm
03:00 AM 47.8°F8.8°C 41.0°F5.0°C 77% 0.9 mph SE1.4 kmh SE 2.2 mph3.5 kmh 30.20 in1022.7 mb 0.00 in0.0 mm 0.00 in0.0 mm 0.00 in0.0 mm
03:05 AM 47.8°F8.8°C 40.6°F4.8°C 76% 1.5 mph SE2.4 kmh SE 2.2 mph3.5 kmh 30.20 in1022.7 mb 0.00 in0.0 mm 0.00 in0.0 mm 0.00 in0.0 mm
03:10 AM 47.7°F8.7°C 40.5°F4.7°C 76% 0.9 mph SSE1.4 kmh SSE 2.2 mph3.5 kmh 30.21 in1023.0 mb 0.00 in0.0 mm 0.00 in0.0 mm 0.00 in0.0 mm
03:15 AM 47.1°F8.4°C 40.3°F4.6°C 77% 0.6 mph SW1.0 kmh SW 1.6 mph2.6 kmh 30.21 in1023.0 mb 0.00 in0.0 mm 0.00 in0.0 mm 0.00 in0.0 mm
03:20 AM 46.9°F8.3°C 40.4°F4.7°C 78% 0.4 mph SW0.6 kmh SW 1.6 mph2.6 kmh 30.21 in1023.0 mb 0.00 in0.0 mm 0.00 in0.0 mm 0.00 in0.0 mm
03:25 AM 46.9°F8.3°C 40.4°F4.7°C 78% 0.2 mph WSW0.3 kmh WSW 0.7 mph1.1 kmh 30.20 in1022.7 mb 0.00 in0.0 mm 0.00 in0.0 mm 0.00 in0.0 mm
03:30 AM 47.1°F8.4°C 40.6°F4.8°C 78% 0.3 mph S0.5 kmh S 0.7 mph1.1 kmh 30.21 in1023.0 mb 0.00 in0.0 mm 0.00 in0.0 mm 0.00 in0.0 mm
03:35 AM 47.1°F8.4°C 40.6°F4.8°C 78% 0.7 mph SSE1.1 kmh SSE 1.6 mph2.6 kmh 30.21 in1023.0 mb 0.00 in0.0 mm 0.00 in0.0 mm 0.00 in0.0 mm
03:40 AM 46.9°F8.3°C 40.4°F4.7°C 78% 1.3 mph SSE2.1 kmh SSE 2.2 mph3.5 kmh 30.21 in1023.0 mb 0.00 in0.0 mm 0.00 in0.0 mm 0.00 in0.0 mm
03:45 AM 46.8°F8.2°C 40.3°F4.6°C 78% 1.1 mph S1.8 kmh S 2.2 mph3.5 kmh 30.21 in1023.0 mb 0.00 in0.0 mm 0.00 in0.0 mm 0.00 in0.0 mm
03:50 AM 46.8°F8.2°C 40.3°F4.6°C 78% 0.6 mph S1.0 kmh S 1.6 mph2.6 kmh 30.21 in1023.0 mb 0.00 in0.0 mm 0.00 in0.0 mm 0.00 in0.0 mm
03:55 AM 46.8°F8.2°C 40.3°F4.6°C 78% 0.4 mph SSW0.6 kmh SSW 1.6 mph2.6 kmh 30.22 in1023.4 mb 0.00 in0.0 mm 0.00 in0.0 mm 0.00 in0.0 mm
04:00 AM 46.8°F8.2°C 40.3°F4.6°C 78% 0.1 mph SW0.2 kmh SW 0.7 mph1.1 kmh 30.22 in1023.4 mb 0.00 in0.0 mm 0.00 in0.0 mm 0.00 in0.0 mm
04:05 AM 46.6°F8.1°C 40.1°F4.5°C 78% Calm Calm -- 30.22 in1023.4 mb 0.00 in0.0 mm 0.00 in0.0 mm 0.00 in0.0 mm
04:10 AM 46.6°F8.1°C 40.1°F4.5°C 78% Calm Calm -- 30.22 in1023.4 mb 0.00 in0.0 mm 0.00 in0.0 mm 0.00 in0.0 mm
04:15 AM 46.4°F8.0°C 39.9°F4.4°C 78% Calm Calm -- 30.22 in1023.4 mb 0.00 in0.0 mm 0.00 in0.0 mm 0.00 in0.0 mm
04:20 AM 46.4°F8.0°C 39.9°F4.4°C 78% Calm Calm -- 30.23 in1023.7 mb 0.00 in0.0 mm 0.00 in0.0 mm 0.00 in0.0 mm
04:25 AM 46.2°F7.9°C 39.7°F4.3°C 78% 0.1 mph W0.2 kmh W 0.7 mph1.1 kmh 30.22 in1023.4 mb 0.00 in0.0 mm 0.00 in0.0 mm 0.00 in0.0 mm
04:30 AM 46.0°F7.8°C 39.9°F4.4°C 79% 0.1 mph W0.2 kmh W 0.7 mph1.1 kmh 30.22 in1023.4 mb 0.00 in0.0 mm 0.00 in0.0 mm 0.00 in0.0 mm
04:35 AM 46.0°F7.8°C 39.9°F4.4°C 79% 0.3 mph S0.5 kmh S 1.6 mph2.6 kmh 30.22 in1023.4 mb 0.00 in0.0 mm 0.00 in0.0 mm 0.00 in0.0 mm
04:40 AM 45.9°F7.7°C 39.7°F4.3°C 79% 0.8 mph S1.3 kmh S 1.6 mph2.6 kmh 30.23 in1023.7 mb 0.00 in0.0 mm 0.00 in0.0 mm 0.00 in0.0 mm
04:45 AM 45.9°F7.7°C 39.7°F4.3°C 79% 0.6 mph S1.0 kmh S 1.6 mph2.6 kmh 30.22 in1023.4 mb 0.00 in0.0 mm 0.00 in0.0 mm 0.00 in0.0 mm
04:50 AM 45.9°F7.7°C 39.7°F4.3°C 79% 0.6 mph S1.0 kmh S 1.6 mph2.6 kmh 30.23 in1023.7 mb 0.00 in0.0 mm 0.00 in0.0 mm 0.00 in0.0 mm
04:55 AM 45.9°F7.7°C 39.7°F4.3°C 79% 0.5 mph S0.8 kmh S 1.6 mph2.6 kmh 30.23 in1023.7 mb 0.00 in0.0 mm 0.00 in0.0 mm 0.00 in0.0 mm
05:00 AM 45.7°F7.6°C 39.5°F4.2°C 79% 0.1 mph SSW0.2 kmh SSW 0.7 mph1.1 kmh 30.23 in1023.7 mb 0.00 in0.0 mm 0.00 in0.0 mm 0.00 in0.0 mm
05:05 AM 45.7°F7.6°C 39.5°F4.2°C 79% Calm Calm -- 30.23 in1023.7 mb 0.00 in0.0 mm 0.00 in0.0 mm 0.00 in0.0 mm
05:10 AM 45.5°F7.5°C 39.4°F4.1°C 79% Calm Calm -- 30.23 in1023.7 mb 0.00 in0.0 mm 0.00 in0.0 mm 0.00 in0.0 mm
05:15 AM 45.3°F7.4°C 39.2°F4.0°C 79% Calm Calm -- 30.24 in1024.0 mb 0.00 in0.0 mm 0.00 in0.0 mm 0.00 in0.0 mm
05:20 AM 45.0°F7.2°C 38.8°F3.8°C 79% 0.2 mph S0.3 kmh S 0.7 mph1.1 kmh 30.24 in1024.0 mb 0.00 in0.0 mm 0.00 in0.0 mm 0.00 in0.0 mm
05:25 AM 45.0°F7.2°C 38.8°F3.8°C 79% 0.6 mph S1.0 kmh S 1.6 mph2.6 kmh 30.24 in1024.0 mb 0.00 in0.0 mm 0.00 in0.0 mm 0.00 in0.0 mm
05:30 AM 45.0°F7.2°C 38.8°F3.8°C 79% 1.0 mph S1.6 kmh S 1.6 mph2.6 kmh 30.24 in1024.0 mb 0.00 in0.0 mm 0.00 in0.0 mm 0.00 in0.0 mm
05:35 AM 44.8°F7.1°C 38.7°F3.7°C 79% 1.4 mph SSE2.3 kmh SSE 1.6 mph2.6 kmh 30.24 in1024.0 mb 0.00 in0.0 mm 0.00 in0.0 mm 0.00 in0.0 mm
05:40 AM 44.6°F7.0°C 38.8°F3.8°C 80% 1.6 mph SSE2.6 kmh SSE 2.2 mph3.5 kmh 30.24 in1024.0 mb 0.00 in0.0 mm 0.00 in0.0 mm 0.00 in0.0 mm
05:45 AM 44.2°F6.8°C 38.5°F3.6°C 80% 1.7 mph S2.7 kmh S 2.2 mph3.5 kmh 30.24 in1024.0 mb 0.00 in0.0 mm 0.00 in0.0 mm 0.00 in0.0 mm
05:50 AM 44.2°F6.8°C 38.8°F3.8°C 81% 1.8 mph S2.9 kmh S 2.2 mph3.5 kmh 30.24 in1024.0 mb 0.00 in0.0 mm 0.00 in0.0 mm 0.00 in0.0 mm
05:55 AM 44.4°F6.9°C 39.0°F3.9°C 81% 1.7 mph S2.7 kmh S 2.2 mph3.5 kmh 30.24 in1024.0 mb 0.00 in0.0 mm 0.00 in0.0 mm 0.00 in0.0 mm
06:00 AM 44.2°F6.8°C 38.5°F3.6°C 80% 0.9 mph S1.4 kmh S 2.2 mph3.5 kmh 30.24 in1024.0 mb 0.00 in0.0 mm 0.00 in0.0 mm 0.00 in0.0 mm
06:05 AM 44.2°F6.8°C 38.5°F3.6°C 80% 0.4 mph S0.6 kmh S 1.6 mph2.6 kmh 30.25 in1024.4 mb 0.00 in0.0 mm 0.00 in0.0 mm 0.00 in0.0 mm
06:10 AM 43.9°F6.6°C 38.1°F3.4°C 80% 1.2 mph S1.9 kmh S 2.2 mph3.5 kmh 30.25 in1024.4 mb 0.00 in0.0 mm 0.00 in0.0 mm 0.00 in0.0 mm
06:15 AM 43.5°F6.4°C 38.1°F3.4°C 81% 1.6 mph S2.6 kmh S 2.2 mph3.5 kmh 30.25 in1024.4 mb 0.00 in0.0 mm 0.00 in0.0 mm 0.00 in0.0 mm
06:20 AM 43.5°F6.4°C 38.1°F3.4°C 81% 1.4 mph S2.3 kmh S 1.6 mph2.6 kmh 30.25 in1024.4 mb 0.00 in0.0 mm 0.00 in0.0 mm 0.00 in0.0 mm
06:25 AM 43.3°F6.3°C 37.9°F3.3°C 81% 1.2 mph S1.9 kmh S 1.6 mph2.6 kmh 30.25 in1024.4 mb 0.00 in0.0 mm 0.00 in0.0 mm 0.00 in0.0 mm
06:30 AM 43.3°F6.3°C 38.2°F3.4°C 82% 1.3 mph S2.1 kmh S 2.2 mph3.5 kmh 30.25 in1024.4 mb 0.00 in0.0 mm 0.00 in0.0 mm 0.00 in0.0 mm
06:35 AM 43.5°F6.4°C 38.4°F3.6°C 82% 1.7 mph S2.7 kmh S 2.2 mph3.5 kmh 30.25 in1024.4 mb 0.00 in0.0 mm 0.00 in0.0 mm 0.00 in0.0 mm
06:40 AM 43.5°F6.4°C 38.4°F3.6°C 82% 1.9 mph S3.1 kmh S 2.2 mph3.5 kmh 30.25 in1024.4 mb 0.00 in0.0 mm 0.00 in0.0 mm 0.00 in0.0 mm
06:45 AM 43.9°F6.6°C 38.7°F3.7°C 82% 2.2 mph S3.5 kmh S 3.1 mph5.0 kmh 30.26 in1024.7 mb 0.00 in0.0 mm 0.00 in0.0 mm 0.00 in0.0 mm
06:50 AM 43.9°F6.6°C 38.7°F3.7°C 82% 2.7 mph SE4.3 kmh SE 3.1 mph5.0 kmh 30.25 in1024.4 mb 0.00 in0.0 mm 0.00 in0.0 mm 0.00 in0.0 mm
06:55 AM 44.1°F6.7°C 38.9°F3.8°C 82% 2.5 mph SSE4.0 kmh SSE 3.1 mph5.0 kmh 30.25 in1024.4 mb 0.00 in0.0 mm 0.00 in0.0 mm 0.00 in0.0 mm
07:00 AM 44.1°F6.7°C 38.9°F3.8°C 82% 1.7 mph S2.7 kmh S 2.2 mph3.5 kmh 30.26 in1024.7 mb 0.00 in0.0 mm 0.00 in0.0 mm 0.00 in0.0 mm
07:05 AM 44.2°F6.8°C 39.1°F3.9°C 82% 1.6 mph S2.6 kmh S 3.8 mph6.1 kmh 30.25 in1024.4 mb 0.00 in0.0 mm 0.00 in0.0 mm 0.00 in0.0 mm
07:10 AM 44.4°F6.9°C 39.3°F4.1°C 82% 2.5 mph SE4.0 kmh SE 3.8 mph6.1 kmh 30.25 in1024.4 mb 0.00 in0.0 mm 0.00 in0.0 mm 0.00 in0.0 mm
07:15 AM 44.6°F7.0°C 39.5°F4.2°C 82% 2.7 mph SE4.3 kmh SE 3.8 mph6.1 kmh 30.25 in1024.4 mb 0.00 in0.0 mm 0.00 in0.0 mm 0.00 in0.0 mm
07:20 AM 45.0°F7.2°C 39.8°F4.3°C 82% 1.8 mph SSE2.9 kmh SSE 3.1 mph5.0 kmh 30.25 in1024.4 mb 0.00 in0.0 mm 0.00 in0.0 mm 0.00 in0.0 mm
07:25 AM 45.3°F7.4°C 40.2°F4.6°C 82% 1.7 mph SE2.7 kmh SE 3.8 mph6.1 kmh 30.26 in1024.7 mb 0.00 in0.0 mm 0.00 in0.0 mm 0.00 in0.0 mm
07:30 AM 45.7°F7.6°C 40.5°F4.7°C 82% 2.0 mph SE3.2 kmh SE 3.8 mph6.1 kmh 30.26 in1024.7 mb 0.00 in0.0 mm 0.00 in0.0 mm 0.00 in0.0 mm
07:35 AM 46.2°F7.9°C 41.0°F5.0°C 82% 2.9 mph ESE4.7 kmh ESE 5.4 mph8.7 kmh 30.26 in1024.7 mb 0.00 in0.0 mm 0.00 in0.0 mm 0.00 in0.0 mm
07:40 AM 46.6°F8.1°C 41.4°F5.2°C 82% 3.7 mph E6.0 kmh E 5.4 mph8.7 kmh 30.27 in1025.1 mb 0.00 in0.0 mm 0.00 in0.0 mm 0.00 in0.0 mm
07:45 AM 47.3°F8.5°C 41.8°F5.4°C 81% 4.1 mph E6.6 kmh E 6.0 mph9.7 kmh 30.26 in1024.7 mb 0.00 in0.0 mm 0.00 in0.0 mm 0.00 in0.0 mm
07:50 AM 47.8°F8.8°C 42.0°F5.6°C 80% 4.1 mph ESE6.6 kmh ESE 6.0 mph9.7 kmh 30.26 in1024.7 mb 0.00 in0.0 mm 0.00 in0.0 mm 0.00 in0.0 mm
07:55 AM 48.2°F9.0°C 42.3°F5.7°C 80% 3.5 mph SE5.6 kmh SE 4.5 mph7.2 kmh 30.26 in1024.7 mb 0.00 in0.0 mm 0.00 in0.0 mm 0.00 in0.0 mm
08:00 AM 48.6°F9.2°C 42.4°F5.8°C 79% 4.0 mph SE6.4 kmh SE 7.6 mph12.2 kmh 30.26 in1024.7 mb 0.00 in0.0 mm 0.00 in0.0 mm 0.00 in0.0 mm
08:05 AM 49.3°F9.6°C 43.1°F6.2°C 79% 4.3 mph ESE6.9 kmh ESE 7.6 mph12.2 kmh 30.27 in1025.1 mb 0.00 in0.0 mm 0.00 in0.0 mm 0.00 in0.0 mm
08:10 AM 50.0°F10.0°C 43.4°F6.3°C 78% 3.6 mph ESE5.8 kmh ESE 5.4 mph8.7 kmh 30.27 in1025.1 mb 0.00 in0.0 mm 0.00 in0.0 mm 0.00 in0.0 mm
08:15 AM 50.7°F10.4°C 43.8°F6.6°C 77% 4.1 mph SE6.6 kmh SE 6.9 mph11.1 kmh 30.27 in1025.1 mb 0.00 in0.0 mm 0.00 in0.0 mm 0.00 in0.0 mm
08:20 AM 51.1°F10.6°C 43.4°F6.3°C 75% 4.4 mph SE7.1 kmh SE 6.9 mph11.1 kmh 30.28 in1025.4 mb 0.00 in0.0 mm 0.00 in0.0 mm 0.00 in0.0 mm
08:25 AM 52.0°F11.1°C 44.3°F6.8°C 75% 5.0 mph SE8.0 kmh SE 6.9 mph11.1 kmh 30.28 in1025.4 mb 0.00 in0.0 mm 0.00 in0.0 mm 0.00 in0.0 mm
08:30 AM 52.5°F11.4°C 44.5°F6.9°C 74% 5.1 mph ESE8.2 kmh ESE 6.9 mph11.1 kmh 30.28 in1025.4 mb 0.00 in0.0 mm 0.00 in0.0 mm 0.00 in0.0 mm
08:35 AM 53.2°F11.8°C 44.8°F7.1°C 73% 4.1 mph ESE6.6 kmh ESE 6.0 mph9.7 kmh 30.28 in1025.4 mb 0.00 in0.0 mm 0.00 in0.0 mm 0.00 in0.0 mm
08:40 AM 53.8°F12.1°C 45.0°F7.2°C 72% 4.4 mph E7.1 kmh E 6.0 mph9.7 kmh 30.28 in1025.4 mb 0.00 in0.0 mm 0.00 in0.0 mm 0.00 in0.0 mm
08:45 AM 54.9°F12.7°C 45.6°F7.6°C 71% 4.2 mph E6.8 kmh E 6.0 mph9.7 kmh 30.28 in1025.4 mb 0.00 in0.0 mm 0.00 in0.0 mm 0.00 in0.0 mm
08:50 AM 55.4°F13.0°C 45.8°F7.7°C 70% 3.6 mph E5.8 kmh E 5.4 mph8.7 kmh 30.28 in1025.4 mb 0.00 in0.0 mm 0.00 in0.0 mm 0.00 in0.0 mm
08:55 AM 56.1°F13.4°C 46.1°F7.8°C 69% 3.6 mph ESE5.8 kmh ESE 5.4 mph8.7 kmh 30.28 in1025.4 mb 0.00 in0.0 mm 0.00 in0.0 mm 0.00 in0.0 mm
09:00 AM 56.5°F13.6°C 46.1°F7.8°C 68% 3.2 mph SE5.1 kmh SE 4.5 mph7.2 kmh 30.28 in1025.4 mb 0.00 in0.0 mm 0.00 in0.0 mm 0.00 in0.0 mm
09:05 AM 57.6°F14.2°C 46.3°F7.9°C 66% 2.9 mph SE4.7 kmh SE 3.8 mph6.1 kmh 30.28 in1025.4 mb 0.00 in0.0 mm 0.00 in0.0 mm 0.00 in0.0 mm
09:10 AM 57.7°F14.3°C 46.1°F7.8°C 65% 3.1 mph E5.0 kmh E 3.8 mph6.1 kmh 30.28 in1025.4 mb 0.00 in0.0 mm 0.00 in0.0 mm 0.00 in0.0 mm
09:15 AM 58.5°F14.7°C 46.3°F7.9°C 64% 3.8 mph ESE6.1 kmh ESE 5.4 mph8.7 kmh 30.28 in1025.4 mb 0.00 in0.0 mm 0.00 in0.0 mm 0.00 in0.0 mm
09:20 AM 59.5°F15.3°C 46.5°F8.1°C 62% 3.8 mph SE6.1 kmh SE 5.4 mph8.7 kmh 30.28 in1025.4 mb 0.00 in0.0 mm 0.00 in0.0 mm 0.00 in0.0 mm
09:25 AM 59.9°F15.5°C 45.6°F7.6°C 59% 4.2 mph E6.8 kmh E 6.0 mph9.7 kmh 30.28 in1025.4 mb 0.00 in0.0 mm 0.00 in0.0 mm 0.00 in0.0 mm
09:30 AM 60.6°F15.9°C 45.8°F7.7°C 58% 5.5 mph E8.9 kmh E 9.8 mph15.8 kmh 30.28 in1025.4 mb 0.00 in0.0 mm 0.00 in0.0 mm 0.00 in0.0 mm
09:35 AM 61.3°F16.3°C 46.0°F7.8°C 57% 6.4 mph E10.3 kmh E 9.8 mph15.8 kmh 30.28 in1025.4 mb 0.00 in0.0 mm 0.00 in0.0 mm 0.00 in0.0 mm
09:40 AM 62.1°F16.7°C 45.7°F7.6°C 55% 7.7 mph E12.4 kmh E 12.1 mph19.5 kmh 30.27 in1025.1 mb 0.00 in0.0 mm 0.00 in0.0 mm 0.00 in0.0 mm
09:45 AM 62.8°F17.1°C 46.4°F8.0°C 55% 7.6 mph ESE12.2 kmh ESE 12.1 mph19.5 kmh 30.27 in1025.1 mb 0.00 in0.0 mm 0.00 in0.0 mm 0.00 in0.0 mm
09:50 AM 63.7°F17.6°C 46.2°F7.9°C 53% 6.4 mph ESE10.3 kmh ESE 11.4 mph18.3 kmh 30.27 in1025.1 mb 0.00 in0.0 mm 0.00 in0.0 mm 0.00 in0.0 mm
09:55 AM 63.9°F17.7°C 45.9°F7.7°C 52% 7.2 mph E11.6 kmh E 11.4 mph18.3 kmh 30.27 in1025.1 mb 0.00 in0.0 mm 0.00 in0.0 mm 0.00 in0.0 mm
10:00 AM 64.4°F18.0°C 46.4°F8.0°C 52% 7.3 mph E11.7 kmh E 11.4 mph18.3 kmh 30.27 in1025.1 mb 0.00 in0.0 mm 0.00 in0.0 mm 0.00 in0.0 mm
10:05 AM 64.6°F18.1°C 46.1°F7.8°C 51% 7.8 mph E12.6 kmh E 11.4 mph18.3 kmh 30.27 in1025.1 mb 0.00 in0.0 mm 0.00 in0.0 mm 0.00 in0.0 mm
10:10 AM 64.6°F18.1°C 45.5°F7.5°C 50% 9.0 mph ENE14.5 kmh ENE 11.4 mph18.3 kmh 30.27 in1025.1 mb 0.00 in0.0 mm 0.00 in0.0 mm 0.00 in0.0 mm
10:15 AM 64.9°F18.3°C 45.9°F7.7°C 50% 8.3 mph E13.4 kmh E 11.4 mph18.3 kmh 30.26 in1024.7 mb 0.00 in0.0 mm 0.00 in0.0 mm 0.00 in0.0 mm
10:20 AM 65.5°F18.6°C 46.4°F8.0°C 50% 7.2 mph E11.6 kmh E 10.7 mph17.2 kmh 30.27 in1025.1 mb 0.00 in0.0 mm 0.00 in0.0 mm 0.00 in0.0 mm
10:25 AM 66.4°F19.1°C 47.2°F8.4°C 50% 6.7 mph E10.8 kmh E 9.2 mph14.8 kmh 30.26 in1024.7 mb 0.00 in0.0 mm 0.00 in0.0 mm 0.00 in0.0 mm
10:30 AM 67.1°F19.5°C 46.2°F7.9°C 47% 6.3 mph E10.1 kmh E 8.3 mph13.4 kmh 30.26 in1024.7 mb 0.00 in0.0 mm 0.00 in0.0 mm 0.00 in0.0 mm
10:35 AM 66.0°F18.9°C 45.2°F7.3°C 47% 6.5 mph E10.5 kmh E 9.2 mph14.8 kmh 30.26 in1024.7 mb 0.00 in0.0 mm 0.00 in0.0 mm 0.00 in0.0 mm
10:40 AM 65.8°F18.8°C 45.1°F7.3°C 47% 6.0 mph NE9.7 kmh NE 9.2 mph14.8 kmh 30.26 in1024.7 mb 0.00 in0.0 mm 0.00 in0.0 mm 0.00 in0.0 mm
10:45 AM 66.2°F19.0°C 44.8°F7.1°C 46% 5.8 mph NE9.3 kmh NE 7.6 mph12.2 kmh 30.26 in1024.7 mb 0.00 in0.0 mm 0.00 in0.0 mm 0.00 in0.0 mm
10:50 AM 66.6°F19.2°C 45.2°F7.3°C 46% 6.6 mph NE10.6 kmh NE 9.2 mph14.8 kmh 30.26 in1024.7 mb 0.00 in0.0 mm 0.00 in0.0 mm 0.00 in0.0 mm
10:55 AM 67.1°F19.5°C 45.1°F7.3°C 45% 6.5 mph ENE10.5 kmh ENE 9.2 mph14.8 kmh 30.25 in1024.4 mb 0.00 in0.0 mm 0.00 in0.0 mm 0.00 in0.0 mm
11:00 AM 67.8°F19.9°C 45.1°F7.3°C 44% 5.5 mph E8.9 kmh E 9.2 mph14.8 kmh 30.26 in1024.7 mb 0.00 in0.0 mm 0.00 in0.0 mm 0.00 in0.0 mm
11:05 AM 68.9°F20.5°C 46.1°F7.8°C 44% 5.0 mph ESE8.0 kmh ESE 8.3 mph13.4 kmh 30.26 in1024.7 mb 0.00 in0.0 mm 0.00 in0.0 mm 0.00 in0.0 mm
11:10 AM 70.0°F21.1°C 47.1°F8.4°C 44% 4.6 mph SE7.4 kmh SE 6.9 mph11.1 kmh 30.25 in1024.4 mb 0.00 in0.0 mm 0.00 in0.0 mm 0.00 in0.0 mm
11:15 AM 71.1°F21.7°C 47.5°F8.6°C 43% 3.4 mph S5.5 kmh S 4.5 mph7.2 kmh 30.25 in1024.4 mb 0.00 in0.0 mm 0.00 in0.0 mm 0.00 in0.0 mm
11:20 AM 71.4°F21.9°C 46.5°F8.1°C 41% 3.1 mph SW5.0 kmh SW 4.5 mph7.2 kmh 30.25 in1024.4 mb 0.00 in0.0 mm 0.00 in0.0 mm 0.00 in0.0 mm
11:25 AM 71.2°F21.8°C 46.4°F8.0°C 41% 2.9 mph NW4.7 kmh NW 4.5 mph7.2 kmh 30.25 in1024.4 mb 0.00 in0.0 mm 0.00 in0.0 mm 0.00 in0.0 mm
11:30 AM 71.4°F21.9°C 45.9°F7.7°C 40% 3.5 mph SW5.6 kmh SW 6.0 mph9.7 kmh 30.25 in1024.4 mb 0.00 in0.0 mm 0.00 in0.0 mm 0.00 in0.0 mm
11:35 AM 72.1°F22.3°C 46.5°F8.1°C 40% 4.4 mph SW7.1 kmh SW 6.0 mph9.7 kmh 30.25 in1024.4 mb 0.00 in0.0 mm 0.00 in0.0 mm 0.00 in0.0 mm
11:40 AM 72.9°F22.7°C 47.8°F8.8°C 41% 3.9 mph SSW6.3 kmh SSW 6.0 mph9.7 kmh 30.25 in1024.4 mb 0.00 in0.0 mm 0.00 in0.0 mm 0.00 in0.0 mm
11:45 AM 72.9°F22.7°C 47.2°F8.4°C 40% 3.2 mph SSE5.1 kmh SSE 5.4 mph8.7 kmh 30.24 in1024.0 mb 0.00 in0.0 mm 0.00 in0.0 mm 0.00 in0.0 mm
11:50 AM 70.9°F21.6°C 44.7°F7.1°C 39% 3.8 mph NW6.1 kmh NW 6.0 mph9.7 kmh 30.23 in1023.7 mb 0.00 in0.0 mm 0.00 in0.0 mm 0.00 in0.0 mm
11:55 AM 70.3°F21.3°C 44.9°F7.2°C 40% 4.3 mph WNW6.9 kmh WNW 6.0 mph9.7 kmh 30.23 in1023.7 mb 0.00 in0.0 mm 0.00 in0.0 mm 0.00 in0.0 mm
12:00 PM 71.6°F22.0°C 46.7°F8.2°C 41% 4.1 mph WSW6.6 kmh WSW 5.4 mph8.7 kmh 30.22 in1023.4 mb 0.00 in0.0 mm 0.00 in0.0 mm 0.00 in0.0 mm
12:05 PM 73.4°F23.0°C 47.6°F8.7°C 40% 3.2 mph SW5.1 kmh SW 5.4 mph8.7 kmh 30.22 in1023.4 mb 0.00 in0.0 mm 0.00 in0.0 mm 0.00 in0.0 mm
12:10 PM 73.8°F23.2°C 48.0°F8.9°C 40% 2.6 mph SSE4.2 kmh SSE 3.8 mph6.1 kmh 30.22 in1023.4 mb 0.00 in0.0 mm 0.00 in0.0 mm 0.00 in0.0 mm
12:15 PM 74.1°F23.4°C 47.6°F8.7°C 39% 3.8 mph SE6.1 kmh SE 6.9 mph11.1 kmh 30.22 in1023.4 mb 0.00 in0.0 mm 0.00 in0.0 mm 0.00 in0.0 mm
12:20 PM 73.8°F23.2°C 46.6°F8.1°C 38% 4.3 mph SE6.9 kmh SE 6.9 mph11.1 kmh 30.22 in1023.4 mb 0.00 in0.0 mm 0.00 in0.0 mm 0.00 in0.0 mm
12:25 PM 73.6°F23.1°C 47.1°F8.4°C 39% 4.6 mph E7.4 kmh E 6.0 mph9.7 kmh 30.22 in1023.4 mb 0.00 in0.0 mm 0.00 in0.0 mm 0.00 in0.0 mm
12:30 PM 74.1°F23.4°C 47.6°F8.7°C 39% 4.3 mph E6.9 kmh E 6.0 mph9.7 kmh 30.22 in1023.4 mb 0.00 in0.0 mm 0.00 in0.0 mm 0.00 in0.0 mm
12:35 PM 73.9°F23.3°C 46.1°F7.8°C 37% 3.2 mph ENE5.1 kmh ENE 4.5 mph7.2 kmh 30.21 in1023.0 mb 0.00 in0.0 mm 0.00 in0.0 mm 0.00 in0.0 mm
12:40 PM 73.4°F23.0°C 46.3°F7.9°C 38% 3.4 mph NE5.5 kmh NE 5.4 mph8.7 kmh 30.21 in1023.0 mb 0.00 in0.0 mm 0.00 in0.0 mm 0.00 in0.0 mm
12:45 PM 73.2°F22.9°C 45.4°F7.4°C 37% 3.7 mph NNW6.0 kmh NNW 5.4 mph8.7 kmh 30.20 in1022.7 mb 0.00 in0.0 mm 0.00 in0.0 mm 0.00 in0.0 mm
12:50 PM 73.4°F23.0°C 46.3°F7.9°C 38% 3.4 mph N5.5 kmh N 5.4 mph8.7 kmh 30.20 in1022.7 mb 0.00 in0.0 mm 0.00 in0.0 mm 0.00 in0.0 mm
12:55 PM 73.9°F23.3°C 46.8°F8.2°C 38% 3.1 mph S5.0 kmh S 6.0 mph9.7 kmh 30.20 in1022.7 mb 0.00 in0.0 mm 0.00 in0.0 mm 0.00 in0.0 mm
01:00 PM 74.8°F23.8°C 46.9°F8.3°C 37% 3.1 mph S5.0 kmh S 6.0 mph9.7 kmh 30.20 in1022.7 mb 0.00 in0.0 mm 0.00 in0.0 mm 0.00 in0.0 mm
01:05 PM 75.4°F24.1°C 46.6°F8.1°C 36% 2.8 mph SE4.5 kmh SE 5.4 mph8.7 kmh 30.19 in1022.4 mb 0.00 in0.0 mm 0.00 in0.0 mm 0.00 in0.0 mm
01:10 PM 74.5°F23.6°C 45.8°F7.7°C 36% 3.5 mph N5.6 kmh N 6.0 mph9.7 kmh 30.19 in1022.4 mb 0.00 in0.0 mm 0.00 in0.0 mm 0.00 in0.0 mm
01:15 PM 74.3°F23.5°C 47.1°F8.4°C 38% 4.2 mph N6.8 kmh N 6.0 mph9.7 kmh 30.19 in1022.4 mb 0.00 in0.0 mm 0.00 in0.0 mm 0.00 in0.0 mm
01:20 PM 74.1°F23.4°C 45.5°F7.5°C 36% 4.4 mph NNW7.1 kmh NNW 6.0 mph9.7 kmh 30.19 in1022.4 mb 0.00 in0.0 mm 0.00 in0.0 mm 0.00 in0.0 mm
01:25 PM 74.1°F23.4°C 46.2°F7.9°C 37% 4.2 mph NW6.8 kmh NW 6.0 mph9.7 kmh 30.18 in1022.0 mb 0.00 in0.0 mm 0.00 in0.0 mm 0.00 in0.0 mm
01:30 PM 74.7°F23.7°C 46.0°F7.8°C 36% 3.8 mph WNW6.1 kmh WNW 7.6 mph12.2 kmh 30.18 in1022.0 mb 0.00 in0.0 mm 0.00 in0.0 mm 0.00 in0.0 mm
01:35 PM 74.3°F23.5°C 45.6°F7.6°C 36% 4.5 mph NW7.2 kmh NW 7.6 mph12.2 kmh 30.18 in1022.0 mb 0.00 in0.0 mm 0.00 in0.0 mm 0.00 in0.0 mm
01:40 PM 73.8°F23.2°C 45.2°F7.3°C 36% 6.7 mph NW10.8 kmh NW 11.4 mph18.3 kmh 30.18 in1022.0 mb 0.00 in0.0 mm 0.00 in0.0 mm 0.00 in0.0 mm
01:45 PM 73.4°F23.0°C 44.9°F7.2°C 36% 7.7 mph NW12.4 kmh NW 11.4 mph18.3 kmh 30.18 in1022.0 mb 0.00 in0.0 mm 0.00 in0.0 mm 0.00 in0.0 mm
01:50 PM 73.8°F23.2°C 45.9°F7.7°C 37% 5.0 mph NW8.0 kmh NW 10.7 mph17.2 kmh 30.18 in1022.0 mb 0.00 in0.0 mm 0.00 in0.0 mm 0.00 in0.0 mm
01:55 PM 74.7°F23.7°C 45.2°F7.3°C 35% 3.0 mph W4.8 kmh W 5.4 mph8.7 kmh 30.18 in1022.0 mb 0.00 in0.0 mm 0.00 in0.0 mm 0.00 in0.0 mm
02:00 PM 75.7°F24.3°C 46.2°F7.9°C 35% 3.0 mph W4.8 kmh W 5.4 mph8.7 kmh 30.17 in1021.7 mb 0.00 in0.0 mm 0.00 in0.0 mm 0.00 in0.0 mm
02:05 PM 76.1°F24.5°C 46.5°F8.1°C 35% 2.8 mph WSW4.5 kmh WSW 5.4 mph8.7 kmh 30.17 in1021.7 mb 0.00 in0.0 mm 0.00 in0.0 mm 0.00 in0.0 mm
02:10 PM 75.6°F24.2°C 45.3°F7.4°C 34% 4.1 mph WNW6.6 kmh WNW 9.8 mph15.8 kmh 30.17 in1021.7 mb 0.00 in0.0 mm 0.00 in0.0 mm 0.00 in0.0 mm
02:15 PM 74.5°F23.6°C 45.1°F7.3°C 35% 6.6 mph NW10.6 kmh NW 10.7 mph17.2 kmh 30.17 in1021.7 mb 0.00 in0.0 mm 0.00 in0.0 mm 0.00 in0.0 mm
02:20 PM 73.9°F23.3°C 45.3°F7.4°C 36% 5.5 mph NW8.9 kmh NW 10.7 mph17.2 kmh 30.16 in1021.3 mb 0.00 in0.0 mm 0.00 in0.0 mm 0.00 in0.0 mm
02:25 PM 73.9°F23.3°C 44.6°F7.0°C 35% 3.4 mph NNW5.5 kmh NNW 6.9 mph11.1 kmh 30.16 in1021.3 mb 0.00 in0.0 mm 0.00 in0.0 mm 0.00 in0.0 mm
02:30 PM 73.8°F23.2°C 45.2°F7.3°C 36% 4.4 mph NW7.1 kmh NW 7.6 mph12.2 kmh 30.16 in1021.3 mb 0.00 in0.0 mm 0.00 in0.0 mm 0.00 in0.0 mm
02:35 PM 73.6°F23.1°C 44.3°F6.8°C 35% 5.8 mph NNW9.3 kmh NNW 7.6 mph12.2 kmh 30.15 in1021.0 mb 0.00 in0.0 mm 0.00 in0.0 mm 0.00 in0.0 mm
02:40 PM 73.8°F23.2°C 45.2°F7.3°C 36% 4.9 mph N7.9 kmh N 7.6 mph12.2 kmh 30.15 in1021.0 mb 0.00 in0.0 mm 0.00 in0.0 mm 0.00 in0.0 mm
02:45 PM 74.3°F23.5°C 44.9°F7.2°C 35% 4.2 mph W6.8 kmh W 6.9 mph11.1 kmh 30.15 in1021.0 mb 0.00 in0.0 mm 0.00 in0.0 mm 0.00 in0.0 mm
02:50 PM 74.5°F23.6°C 45.1°F7.3°C 35% 3.7 mph NW6.0 kmh NW 6.0 mph9.7 kmh 30.15 in1021.0 mb 0.00 in0.0 mm 0.00 in0.0 mm 0.00 in0.0 mm
02:55 PM 74.5°F23.6°C 45.1°F7.3°C 35% 3.3 mph N5.3 kmh N 6.9 mph11.1 kmh 30.15 in1021.0 mb 0.00 in0.0 mm 0.00 in0.0 mm 0.00 in0.0 mm
03:00 PM 74.1°F23.4°C 44.7°F7.1°C 35% 4.8 mph NNW7.7 kmh NNW 6.9 mph11.1 kmh 30.15 in1021.0 mb 0.00 in0.0 mm 0.00 in0.0 mm 0.00 in0.0 mm
03:05 PM 73.8°F23.2°C 44.4°F6.9°C 35% 6.2 mph NNW10.0 kmh NNW 8.3 mph13.4 kmh 30.15 in1021.0 mb 0.00 in0.0 mm 0.00 in0.0 mm 0.00 in0.0 mm
03:10 PM 73.8°F23.2°C 44.4°F6.9°C 35% 6.8 mph NNW10.9 kmh NNW 10.7 mph17.2 kmh 30.14 in1020.7 mb 0.00 in0.0 mm 0.00 in0.0 mm 0.00 in0.0 mm
03:15 PM 73.2°F22.9°C 44.0°F6.7°C 35% 6.5 mph NNW10.5 kmh NNW 10.7 mph17.2 kmh 30.15 in1021.0 mb 0.00 in0.0 mm 0.00 in0.0 mm 0.00 in0.0 mm
03:20 PM 72.3°F22.4°C 43.9°F6.6°C 36% 6.7 mph N10.8 kmh N 9.8 mph15.8 kmh 30.15 in1021.0 mb 0.00 in0.0 mm 0.00 in0.0 mm 0.00 in0.0 mm
03:25 PM 72.5°F22.5°C 44.1°F6.7°C 36% 6.8 mph N10.9 kmh N 9.8 mph15.8 kmh 30.14 in1020.7 mb 0.00 in0.0 mm 0.00 in0.0 mm 0.00 in0.0 mm
03:30 PM 73.4°F23.0°C 44.9°F7.2°C 36% 6.3 mph NNW10.1 kmh NNW 9.8 mph15.8 kmh 30.14 in1020.7 mb 0.00 in0.0 mm 0.00 in0.0 mm 0.00 in0.0 mm
03:35 PM 73.4°F23.0°C 44.1°F6.7°C 35% 5.8 mph NNW9.3 kmh NNW 9.8 mph15.8 kmh 30.14 in1020.7 mb 0.00 in0.0 mm 0.00 in0.0 mm 0.00 in0.0 mm
03:40 PM 73.6°F23.1°C 44.3°F6.8°C 35% 6.2 mph NW10.0 kmh NW 9.2 mph14.8 kmh 30.14 in1020.7 mb 0.00 in0.0 mm 0.00 in0.0 mm 0.00 in0.0 mm
03:45 PM 73.2°F22.9°C 44.0°F6.7°C 35% 5.1 mph NW8.2 kmh NW 9.2 mph14.8 kmh 30.14 in1020.7 mb 0.00 in0.0 mm 0.00 in0.0 mm 0.00 in0.0 mm
03:50 PM 73.4°F23.0°C 44.1°F6.7°C 35% 3.7 mph N6.0 kmh N 5.4 mph8.7 kmh 30.14 in1020.7 mb 0.00 in0.0 mm 0.00 in0.0 mm 0.00 in0.0 mm
03:55 PM 73.2°F22.9°C 44.0°F6.7°C 35% 4.7 mph N7.6 kmh N 6.0 mph9.7 kmh 30.14 in1020.7 mb 0.00 in0.0 mm 0.00 in0.0 mm 0.00 in0.0 mm
04:00 PM 73.2°F22.9°C 44.0°F6.7°C 35% 4.9 mph NNW7.9 kmh NNW 6.9 mph11.1 kmh 30.14 in1020.7 mb 0.00 in0.0 mm 0.00 in0.0 mm 0.00 in0.0 mm
04:05 PM 73.0°F22.8°C 43.8°F6.6°C 35% 5.2 mph NNW8.4 kmh NNW 6.9 mph11.1 kmh 30.14 in1020.7 mb 0.00 in0.0 mm 0.00 in0.0 mm 0.00 in0.0 mm
04:10 PM 73.0°F22.8°C 43.8°F6.6°C 35% 5.1 mph NNW8.2 kmh NNW 6.9 mph11.1 kmh 30.14 in1020.7 mb 0.00 in0.0 mm 0.00 in0.0 mm 0.00 in0.0 mm
04:15 PM 73.6°F23.1°C 43.5°F6.4°C 34% 5.6 mph NNW9.0 kmh NNW 10.7 mph17.2 kmh 30.14 in1020.7 mb 0.00 in0.0 mm 0.00 in0.0 mm 0.00 in0.0 mm
04:20 PM 73.4°F23.0°C 44.1°F6.7°C 35% 6.2 mph NW10.0 kmh NW 10.7 mph17.2 kmh 30.14 in1020.7 mb 0.00 in0.0 mm 0.00 in0.0 mm 0.00 in0.0 mm
04:25 PM 73.0°F22.8°C 43.8°F6.6°C 35% 5.4 mph NW8.7 kmh NW 7.6 mph12.2 kmh 30.14 in1020.7 mb 0.00 in0.0 mm 0.00 in0.0 mm 0.00 in0.0 mm
04:30 PM 72.9°F22.7°C 43.6°F6.4°C 35% 5.4 mph NNW8.7 kmh NNW 7.6 mph12.2 kmh 30.14 in1020.7 mb 0.00 in0.0 mm 0.00 in0.0 mm 0.00 in0.0 mm
04:35 PM 72.7°F22.6°C 43.5°F6.4°C 35% 5.5 mph NNW8.9 kmh NNW 8.3 mph13.4 kmh 30.14 in1020.7 mb 0.00 in0.0 mm 0.00 in0.0 mm 0.00 in0.0 mm
04:40 PM 73.2°F22.9°C 43.2°F6.2°C 34% 4.7 mph NW7.6 kmh NW 8.3 mph13.4 kmh 30.14 in1020.7 mb 0.00 in0.0 mm 0.00 in0.0 mm 0.00 in0.0 mm
04:45 PM 72.7°F22.6°C 42.7°F5.9°C 34% 5.2 mph NW8.4 kmh NW 7.6 mph12.2 kmh 30.14 in1020.7 mb 0.00 in0.0 mm 0.00 in0.0 mm 0.00 in0.0 mm
04:50 PM 72.7°F22.6°C 42.7°F5.9°C 34% 6.0 mph NW9.7 kmh NW 8.3 mph13.4 kmh 30.13 in1020.3 mb 0.00 in0.0 mm 0.00 in0.0 mm 0.00 in0.0 mm
04:55 PM 72.7°F22.6°C 42.7°F5.9°C 34% 6.0 mph NW9.7 kmh NW 8.3 mph13.4 kmh 30.14 in1020.7 mb 0.00 in0.0 mm 0.00 in0.0 mm 0.00 in0.0 mm
05:00 PM 72.3°F22.4°C 42.4°F5.8°C 34% 6.3 mph NW10.1 kmh NW 8.3 mph13.4 kmh 30.14 in1020.7 mb 0.00 in0.0 mm 0.00 in0.0 mm 0.00 in0.0 mm
05:05 PM 72.1°F22.3°C 42.2°F5.7°C 34% 6.7 mph NW10.8 kmh NW 9.2 mph14.8 kmh 30.14 in1020.7 mb 0.00 in0.0 mm 0.00 in0.0 mm 0.00 in0.0 mm
05:10 PM 71.6°F22.0°C 42.5°F5.8°C 35% 6.9 mph NNW11.1 kmh NNW 9.2 mph14.8 kmh 30.14 in1020.7 mb 0.00 in0.0 mm 0.00 in0.0 mm 0.00 in0.0 mm
05:15 PM 71.1°F21.7°C 42.1°F5.6°C 35% 7.6 mph NNW12.2 kmh NNW 10.7 mph17.2 kmh 30.14 in1020.7 mb 0.00 in0.0 mm 0.00 in0.0 mm 0.00 in0.0 mm
05:20 PM 70.3°F21.3°C 41.4°F5.2°C 35% 7.6 mph NW12.2 kmh NW 10.7 mph17.2 kmh 30.14 in1020.7 mb 0.00 in0.0 mm 0.00 in0.0 mm 0.00 in0.0 mm
05:25 PM 69.8°F21.0°C 41.7°F5.4°C 36% 6.8 mph NW10.9 kmh NW 9.2 mph14.8 kmh 30.14 in1020.7 mb 0.00 in0.0 mm 0.00 in0.0 mm 0.00 in0.0 mm
05:30 PM 69.6°F20.9°C 41.5°F5.3°C 36% 6.4 mph NW10.3 kmh NW 8.3 mph13.4 kmh 30.14 in1020.7 mb 0.00 in0.0 mm 0.00 in0.0 mm 0.00 in0.0 mm
05:35 PM 69.3°F20.7°C 41.9°F5.5°C 37% 6.6 mph NW10.6 kmh NW 8.3 mph13.4 kmh 30.14 in1020.7 mb 0.00 in0.0 mm 0.00 in0.0 mm 0.00 in0.0 mm
05:40 PM 69.1°F20.6°C 41.7°F5.4°C 37% 7.0 mph NW11.3 kmh NW 8.3 mph13.4 kmh 30.14 in1020.7 mb 0.00 in0.0 mm 0.00 in0.0 mm 0.00 in0.0 mm
05:45 PM 68.7°F20.4°C 41.4°F5.2°C 37% 6.1 mph NW9.8 kmh NW 8.3 mph13.4 kmh 30.14 in1020.7 mb 0.00 in0.0 mm 0.00 in0.0 mm 0.00 in0.0 mm
05:50 PM 68.5°F20.3°C 41.9°F5.5°C 38% 5.3 mph NW8.5 kmh NW 7.6 mph12.2 kmh 30.15 in1021.0 mb 0.00 in0.0 mm 0.00 in0.0 mm 0.00 in0.0 mm
05:55 PM 68.4°F20.2°C 41.8°F5.4°C 38% 5.3 mph NW8.5 kmh NW 7.6 mph12.2 kmh 30.15 in1021.0 mb 0.00 in0.0 mm 0.00 in0.0 mm 0.00 in0.0 mm
06:00 PM 68.0°F20.0°C 41.5°F5.3°C 38% 5.1 mph NW8.2 kmh NW 7.6 mph12.2 kmh 30.15 in1021.0 mb 0.00 in0.0 mm 0.00 in0.0 mm 0.00 in0.0 mm
06:05 PM 67.8°F19.9°C 42.0°F5.6°C 39% 4.7 mph WNW7.6 kmh WNW 6.9 mph11.1 kmh 30.14 in1020.7 mb 0.00 in0.0 mm 0.00 in0.0 mm 0.00 in0.0 mm
06:10 PM 67.5°F19.7°C 41.7°F5.4°C 39% 3.8 mph NW6.1 kmh NW 5.4 mph8.7 kmh 30.14 in1020.7 mb 0.00 in0.0 mm 0.00 in0.0 mm 0.00 in0.0 mm
06:15 PM 67.3°F19.6°C 42.2°F5.7°C 40% 3.5 mph WNW5.6 kmh WNW 5.4 mph8.7 kmh 30.15 in1021.0 mb 0.00 in0.0 mm 0.00 in0.0 mm 0.00 in0.0 mm
06:20 PM 66.9°F19.4°C 41.8°F5.4°C 40% 3.5 mph W5.6 kmh W 5.4 mph8.7 kmh 30.15 in1021.0 mb 0.00 in0.0 mm 0.00 in0.0 mm 0.00 in0.0 mm
06:25 PM 66.7°F19.3°C 41.7°F5.4°C 40% 3.1 mph W5.0 kmh W 3.8 mph6.1 kmh 30.15 in1021.0 mb 0.00 in0.0 mm 0.00 in0.0 mm 0.00 in0.0 mm
06:30 PM 66.4°F19.1°C 42.0°F5.6°C 41% 2.7 mph W4.3 kmh W 3.1 mph5.0 kmh 30.15 in1021.0 mb 0.00 in0.0 mm 0.00 in0.0 mm 0.00 in0.0 mm
06:35 PM 65.8°F18.8°C 41.5°F5.3°C 41% 2.1 mph WSW3.4 kmh WSW 3.1 mph5.0 kmh 30.15 in1021.0 mb 0.00 in0.0 mm 0.00 in0.0 mm 0.00 in0.0 mm
06:40 PM 65.1°F18.4°C 41.5°F5.3°C 42% 1.0 mph WSW1.6 kmh WSW 2.2 mph3.5 kmh 30.15 in1021.0 mb 0.00 in0.0 mm 0.00 in0.0 mm 0.00 in0.0 mm
06:45 PM 64.6°F18.1°C 41.6°F5.3°C 43% 0.4 mph SW0.6 kmh SW 1.6 mph2.6 kmh 30.15 in1021.0 mb 0.00 in0.0 mm 0.00 in0.0 mm 0.00 in0.0 mm
06:50 PM 64.2°F17.9°C 41.3°F5.2°C 43% 0.3 mph SW0.5 kmh SW 1.6 mph2.6 kmh 30.16 in1021.3 mb 0.00 in0.0 mm 0.00 in0.0 mm 0.00 in0.0 mm
06:55 PM 63.9°F17.7°C 41.5°F5.3°C 44% 0.9 mph WSW1.4 kmh WSW 3.1 mph5.0 kmh 30.16 in1021.3 mb 0.00 in0.0 mm 0.00 in0.0 mm 0.00 in0.0 mm
07:00 PM 63.9°F17.7°C 41.5°F5.3°C 44% 1.8 mph WSW2.9 kmh WSW 3.1 mph5.0 kmh 30.16 in1021.3 mb 0.00 in0.0 mm 0.00 in0.0 mm 0.00 in0.0 mm
07:05 PM 63.3°F17.4°C 41.6°F5.3°C 45% 1.4 mph SW2.3 kmh SW 2.2 mph3.5 kmh 30.16 in1021.3 mb 0.00 in0.0 mm 0.00 in0.0 mm 0.00 in0.0 mm
07:10 PM 63.0°F17.2°C 41.3°F5.2°C 45% 0.9 mph SW1.4 kmh SW 1.6 mph2.6 kmh 30.15 in1021.0 mb 0.00 in0.0 mm 0.00 in0.0 mm 0.00 in0.0 mm
07:15 PM 62.8°F17.1°C 41.1°F5.1°C 45% 0.9 mph SW1.4 kmh SW 1.6 mph2.6 kmh 30.16 in1021.3 mb 0.00 in0.0 mm 0.00 in0.0 mm 0.00 in0.0 mm
07:20 PM 62.2°F16.8°C 41.2°F5.1°C 46% 1.0 mph SW1.6 kmh SW 1.6 mph2.6 kmh 30.16 in1021.3 mb 0.00 in0.0 mm 0.00 in0.0 mm 0.00 in0.0 mm
07:25 PM 62.2°F16.8°C 41.2°F5.1°C 46% 1.3 mph SSW2.1 kmh SSW 3.1 mph5.0 kmh 30.16 in1021.3 mb 0.00 in0.0 mm 0.00 in0.0 mm 0.00 in0.0 mm
07:30 PM 62.1°F16.7°C 41.6°F5.3°C 47% 1.7 mph S2.7 kmh S 3.1 mph5.0 kmh 30.16 in1021.3 mb 0.00 in0.0 mm 0.00 in0.0 mm 0.00 in0.0 mm
07:35 PM 61.9°F16.6°C 41.4°F5.2°C 47% 1.5 mph S2.4 kmh S 2.2 mph3.5 kmh 30.16 in1021.3 mb 0.00 in0.0 mm 0.00 in0.0 mm 0.00 in0.0 mm
07:40 PM 61.5°F16.4°C 41.7°F5.4°C 48% 1.5 mph S2.4 kmh S 2.2 mph3.5 kmh 30.16 in1021.3 mb 0.00 in0.0 mm 0.00 in0.0 mm 0.00 in0.0 mm
07:45 PM 61.3°F16.3°C 41.5°F5.3°C 48% 1.2 mph S1.9 kmh S 2.2 mph3.5 kmh 30.17 in1021.7 mb 0.00 in0.0 mm 0.00 in0.0 mm 0.00 in0.0 mm
07:50 PM 61.0°F16.1°C 41.7°F5.4°C 49% 1.1 mph S1.8 kmh S 1.6 mph2.6 kmh 30.16 in1021.3 mb 0.00 in0.0 mm 0.00 in0.0 mm 0.00 in0.0 mm
07:55 PM 60.8°F16.0°C 41.5°F5.3°C 49% 1.0 mph S1.6 kmh S 1.6 mph2.6 kmh 30.16 in1021.3 mb 0.00 in0.0 mm 0.00 in0.0 mm 0.00 in0.0 mm
08:00 PM 60.4°F15.8°C 41.2°F5.1°C 49% 0.2 mph S0.3 kmh S 1.6 mph2.6 kmh 30.16 in1021.3 mb 0.00 in0.0 mm 0.00 in0.0 mm 0.00 in0.0 mm
08:05 PM 60.1°F15.6°C 41.4°F5.2°C 50% Calm Calm -- 30.17 in1021.7 mb 0.00 in0.0 mm 0.00 in0.0 mm 0.00 in0.0 mm
08:10 PM 59.7°F15.4°C 41.1°F5.1°C 50% 0.1 mph S0.2 kmh S 0.7 mph1.1 kmh 30.17 in1021.7 mb 0.00 in0.0 mm 0.00 in0.0 mm 0.00 in0.0 mm
08:15 PM 59.4°F15.2°C 41.2°F5.1°C 51% 0.2 mph S0.3 kmh S 0.7 mph1.1 kmh 30.17 in1021.7 mb 0.00 in0.0 mm 0.00 in0.0 mm 0.00 in0.0 mm
08:20 PM 59.2°F15.1°C 41.6°F5.3°C 52% 0.6 mph S1.0 kmh S 1.6 mph2.6 kmh 30.17 in1021.7 mb 0.00 in0.0 mm 0.00 in0.0 mm 0.00 in0.0 mm
08:25 PM 59.0°F15.0°C 41.4°F5.2°C 52% 0.8 mph S1.3 kmh S 1.6 mph2.6 kmh 30.18 in1022.0 mb 0.00 in0.0 mm 0.00 in0.0 mm 0.00 in0.0 mm
08:30 PM 58.8°F14.9°C 41.2°F5.1°C 52% 0.5 mph S0.8 kmh S 0.7 mph1.1 kmh 30.18 in1022.0 mb 0.00 in0.0 mm 0.00 in0.0 mm 0.00 in0.0 mm
08:35 PM 58.6°F14.8°C 41.6°F5.3°C 53% 0.3 mph S0.5 kmh S 0.7 mph1.1 kmh 30.17 in1021.7 mb 0.00 in0.0 mm 0.00 in0.0 mm 0.00 in0.0 mm
08:40 PM 58.5°F14.7°C 41.4°F5.2°C 53% Calm Calm -- 30.18 in1022.0 mb 0.00 in0.0 mm 0.00 in0.0 mm 0.00 in0.0 mm
08:45 PM 58.1°F14.5°C 41.1°F5.1°C 53% 0.4 mph S0.6 kmh S 1.6 mph2.6 kmh 30.17 in1021.7 mb 0.00 in0.0 mm 0.00 in0.0 mm 0.00 in0.0 mm
08:50 PM 57.9°F14.4°C 41.4°F5.2°C 54% 0.5 mph S0.8 kmh S 1.6 mph2.6 kmh 30.17 in1021.7 mb 0.00 in0.0 mm 0.00 in0.0 mm 0.00 in0.0 mm
08:55 PM 57.9°F14.4°C 41.4°F5.2°C 54% 0.5 mph SSE0.8 kmh SSE 1.6 mph2.6 kmh 30.17 in1021.7 mb 0.00 in0.0 mm 0.00 in0.0 mm 0.00 in0.0 mm
09:00 PM 57.7°F14.3°C 41.2°F5.1°C 54% 0.9 mph SSE1.4 kmh SSE 1.6 mph2.6 kmh 30.17 in1021.7 mb 0.00 in0.0 mm 0.00 in0.0 mm 0.00 in0.0 mm
09:05 PM 57.4°F14.1°C 40.9°F4.9°C 54% 0.5 mph SSE0.8 kmh SSE 1.6 mph2.6 kmh 30.17 in1021.7 mb 0.00 in0.0 mm 0.00 in0.0 mm 0.00 in0.0 mm
09:10 PM 57.2°F14.0°C 40.7°F4.8°C 54% 0.1 mph S0.2 kmh S 0.7 mph1.1 kmh 30.18 in1022.0 mb 0.00 in0.0 mm 0.00 in0.0 mm 0.00 in0.0 mm
09:15 PM 57.0°F13.9°C 40.5°F4.7°C 54% 0.1 mph S0.2 kmh S 1.6 mph2.6 kmh 30.18 in1022.0 mb 0.00 in0.0 mm 0.00 in0.0 mm 0.00 in0.0 mm
09:20 PM 56.8°F13.8°C 40.9°F4.9°C 55% 0.6 mph S1.0 kmh S 1.6 mph2.6 kmh 30.18 in1022.0 mb 0.00 in0.0 mm 0.00 in0.0 mm 0.00 in0.0 mm
09:25 PM 56.7°F13.7°C 40.7°F4.8°C 55% 0.4 mph S0.6 kmh S 1.6 mph2.6 kmh 30.18 in1022.0 mb 0.00 in0.0 mm 0.00 in0.0 mm 0.00 in0.0 mm
09:30 PM 56.7°F13.7°C 40.7°F4.8°C 55% Calm Calm -- 30.18 in1022.0 mb 0.00 in0.0 mm 0.00 in0.0 mm 0.00 in0.0 mm
09:35 PM 56.3°F13.5°C 40.4°F4.7°C 55% Calm Calm -- 30.18 in1022.0 mb 0.00 in0.0 mm 0.00 in0.0 mm 0.00 in0.0 mm
09:40 PM 56.1°F13.4°C 40.2°F4.6°C 55% Calm Calm -- 30.18 in1022.0 mb 0.00 in0.0 mm 0.00 in0.0 mm 0.00 in0.0 mm
09:45 PM 55.6°F13.1°C 39.7°F4.3°C 55% Calm Calm -- 30.18 in1022.0 mb 0.00 in0.0 mm 0.00 in0.0 mm 0.00 in0.0 mm
09:50 PM 55.4°F13.0°C 39.5°F4.2°C 55% Calm Calm -- 30.18 in1022.0 mb 0.00 in0.0 mm 0.00 in0.0 mm 0.00 in0.0 mm
09:55 PM 55.4°F13.0°C 39.5°F4.2°C 55% Calm Calm -- 30.18 in1022.0 mb 0.00 in0.0 mm 0.00 in0.0 mm 0.00 in0.0 mm
10:00 PM 55.2°F12.9°C 39.8°F4.3°C 56% Calm Calm -- 30.18 in1022.0 mb 0.00 in0.0 mm 0.00 in0.0 mm 0.00 in0.0 mm
10:05 PM 55.2°F12.9°C 39.8°F4.3°C 56% Calm Calm -- 30.18 in1022.0 mb 0.00 in0.0 mm 0.00 in0.0 mm 0.00 in0.0 mm
10:10 PM 55.0°F12.8°C 39.6°F4.2°C 56% Calm Calm -- 30.18 in1022.0 mb 0.00 in0.0 mm 0.00 in0.0 mm 0.00 in0.0 mm
10:15 PM 54.7°F12.6°C 38.8°F3.8°C 55% Calm Calm -- 30.18 in1022.0 mb 0.00 in0.0 mm 0.00 in0.0 mm 0.00 in0.0 mm
10:20 PM 54.5°F12.5°C 39.1°F3.9°C 56% Calm Calm -- 30.18 in1022.0 mb 0.00 in0.0 mm 0.00 in0.0 mm 0.00 in0.0 mm
10:25 PM 54.5°F12.5°C 39.6°F4.2°C 57% Calm Calm -- 30.18 in1022.0 mb 0.00 in0.0 mm 0.00 in0.0 mm 0.00 in0.0 mm
10:30 PM 54.3°F12.4°C 39.4°F4.1°C 57% Calm Calm -- 30.18 in1022.0 mb 0.00 in0.0 mm 0.00 in0.0 mm 0.00 in0.0 mm
10:35 PM 54.3°F12.4°C 39.4°F4.1°C 57% Calm Calm -- 30.18 in1022.0 mb 0.00 in0.0 mm 0.00 in0.0 mm 0.00 in0.0 mm
10:40 PM 54.1°F12.3°C 39.3°F4.1°C 57% Calm Calm -- 30.18 in1022.0 mb 0.00 in0.0 mm 0.00 in0.0 mm 0.00 in0.0 mm
10:45 PM 54.0°F12.2°C 39.1°F3.9°C 57% Calm Calm -- 30.19 in1022.4 mb 0.00 in0.0 mm 0.00 in0.0 mm 0.00 in0.0 mm
10:50 PM 53.8°F12.1°C 38.9°F3.8°C 57% Calm Calm -- 30.19 in1022.4 mb 0.00 in0.0 mm 0.00 in0.0 mm 0.00 in0.0 mm
10:55 PM 53.8°F12.1°C 38.9°F3.8°C 57% Calm Calm -- 30.19 in1022.4 mb 0.00 in0.0 mm 0.00 in0.0 mm 0.00 in0.0 mm
11:00 PM 53.6°F12.0°C 38.7°F3.7°C 57% Calm Calm -- 30.19 in1022.4 mb 0.00 in0.0 mm 0.00 in0.0 mm 0.00 in0.0 mm
11:05 PM 53.4°F11.9°C 38.6°F3.7°C 57% Calm Calm -- 30.18 in1022.0 mb 0.00 in0.0 mm 0.00 in0.0 mm 0.00 in0.0 mm
11:10 PM 53.2°F11.8°C 38.4°F3.6°C 57% Calm Calm -- 30.18 in1022.0 mb 0.00 in0.0 mm 0.00 in0.0 mm 0.00 in0.0 mm
11:15 PM 53.1°F11.7°C 38.2°F3.4°C 57% Calm Calm -- 30.19 in1022.4 mb 0.00 in0.0 mm 0.00 in0.0 mm 0.00 in0.0 mm
11:20 PM 53.1°F11.7°C 38.7°F3.7°C 58% Calm Calm -- 30.18 in1022.0 mb 0.00 in0.0 mm 0.00 in0.0 mm 0.00 in0.0 mm
11:25 PM 52.9°F11.6°C 38.5°F3.6°C 58% Calm Calm -- 30.18 in1022.0 mb 0.00 in0.0 mm 0.00 in0.0 mm 0.00 in0.0 mm
11:30 PM 52.7°F11.5°C 38.8°F3.8°C 59% Calm Calm -- 30.19 in1022.4 mb 0.00 in0.0 mm 0.00 in0.0 mm 0.00 in0.0 mm
11:35 PM 52.5°F11.4°C 39.0°F3.9°C 60% Calm Calm -- 30.19 in1022.4 mb 0.00 in0.0 mm 0.00 in0.0 mm 0.00 in0.0 mm
11:40 PM 52.5°F11.4°C 39.0°F3.9°C 60% Calm Calm -- 30.19 in1022.4 mb 0.00 in0.0 mm 0.00 in0.0 mm 0.00 in0.0 mm
11:45 PM 52.3°F11.3°C 38.9°F3.8°C 60% Calm Calm -- 30.19 in1022.4 mb 0.00 in0.0 mm 0.00 in0.0 mm 0.00 in0.0 mm
11:50 PM 52.3°F11.3°C 38.9°F3.8°C 60% Calm Calm -- 30.19 in1022.4 mb 0.00 in0.0 mm 0.00 in0.0 mm 0.00 in0.0 mm
11:55 PM 52.2°F11.2°C 38.7°F3.7°C 60% Calm Calm -- 30.19 in1022.4 mb 0.00 in0.0 mm 0.00 in0.0 mm 0.00 in0.0 mm